Hauptseite
METAR-TAF:

METAR-TAF

Flughäfen :

London-Heathrow, England

Flughafen London Heathrow

Breite: 51-29N, Länge: 000-27W, Höhe: 24 m

Beobachtung

Neuester Wetterbericht von vor 16 Minuten, um 08:20 UTC
Wind 7 kt aus Ost/Südost
Temperatur 16°C
Luftfeuchtigkeit 82%
Luftdruck 1020 hPa
Sichtweite 10 km oder mehr

METAR: EGLL 240820Z AUTO 12007KT 9999 NCD 16/13 Q1020 NOSIG

Zeit: 09:36 (08:36 UTC)

Prognose

Neuester Wetterbericht von vor 3 Stunden und 43 Minuten, um 04:53 UTC
Gültige Prognose vom 24 um 06 UTC bis 25 um 12 UTC
Wind 8 kt aus Südost
Sichtweite: 7000 m
Leicht bewölkt in der Höhe von 4500 ft
Übergehend zu
vom 24 um 06 UTC bis 24 um 09 UTC
Sichtweite 10 km oder mehr
Wahrscheinlichkeit 40% :
Zeitweise
vom 24 um 20 UTC bis 25 um 09 UTC
Sichtweite: 7000 m
Regen

TAF: EGLL 240453Z 2406/2512 13008KT 7000 FEW045 BECMG 2406/2409 9999 PROB40 TEMPO 2420/2509 7000 RA

Wetterbeobachtungen und Prognosen von mehr als 4000 Flughäfen (METAR und TAF Bericht).

Die verfügbaren Stationen werden durch gelbe und rote Markierungen auf der Karte dargestellt.

Führen Sie die Maus auf sie, um den Namen der Station zu sehen.

Darauf klicken, um die Beobachtung von Wetterbeobachtungen und Prognosen zu sehen.

Um die Karte zu ändern : klicken Sie auf den grünen Tasten mit einem schwarzen Kreuz Zum Vergrößern, auf den grünen Button mit einem Gedankenstrich zu verkleinern, oder auf die grünen Pfeile für benachbarte Karten.


METAR-TAF: